Time;durP1;ratioP1;P1;durP2;ratioP2;P2;SDS_P1;SDS_P2;PMS_P1;PMS_P2;Temp;Humidity;BMP_temperature;BMP_pressure;BME280_temperature;BME280_humidity;BME280_pressure;Samples;Min_cycle;Max_cycle;Signal;HPM_P1;HPM_P2
2023/07/09 00:02:08;;;;;;;13.98;6.75;;;24.50;95.70;;;;;;5042118;28;20036;-87
2023/07/09 00:04:34;;;;;;;11.43;7.03;;;24.50;95.70;;;;;;5024987;28;20024;-87
2023/07/09 00:07:03;;;;;;;13.48;7.30;;;24.50;95.80;;;;;;5041591;28;20052;-87
2023/07/09 00:09:31;;;;;;;10.27;6.68;;;24.40;95.80;;;;;;5041460;28;20082;-87
2023/07/09 00:11:58;;;;;;;9.38;6.47;;;24.30;95.70;;;;;;5041735;28;20106;-87
2023/07/09 00:14:24;;;;;;;14.38;6.80;;;24.40;95.80;;;;;;5041521;28;20032;-87
2023/07/09 00:16:50;;;;;;;10.30;6.65;;;24.40;95.80;;;;;;5025359;28;20040;-87
2023/07/09 00:19:23;;;;;;;10.90;6.80;;;24.30;95.80;;;;;;5025017;28;20056;-87
2023/07/09 00:21:54;;;;;;;11.80;7.57;;;24.30;95.80;;;;;;5058420;28;20028;-87
2023/07/09 00:24:21;;;;;;;12.95;7.05;;;24.30;95.80;;;;;;5024849;28;20029;-87
2023/07/09 00:26:48;;;;;;;12.10;7.22;;;24.20;95.80;;;;;;5041675;28;20285;-87
2023/07/09 00:29:16;;;;;;;11.57;6.72;;;24.20;95.80;;;;;;5058204;28;20021;-89
2023/07/09 00:31:43;;;;;;;11.73;7.30;;;24.20;95.80;;;;;;5041452;28;20077;-87
2023/07/09 00:34:12;;;;;;;10.13;7.10;;;24.10;95.80;;;;;;5041388;28;20048;-87
2023/07/09 00:36:43;;;;;;;11.40;6.95;;;24.10;95.70;;;;;;5074786;28;20032;-87
2023/07/09 00:39:18;;;;;;;11.00;7.15;;;24.00;95.70;;;;;;5025067;28;20028;-86
2023/07/09 00:41:46;;;;;;;9.75;7.05;;;24.00;95.70;;;;;;5036888;28;20423;-87
2023/07/09 00:44:33;;;;;;;11.45;7.25;;;24.00;95.80;;;;;;5041344;28;20029;-86
2023/07/09 00:47:02;;;;;;;10.43;7.47;;;24.00;95.80;;;;;;5041169;28;20032;-87
2023/07/09 00:49:41;;;;;;;12.10;7.28;;;23.90;95.80;;;;;;5057602;28;20032;-88
2023/07/09 00:52:27;;;;;;;11.43;7.13;;;23.90;95.80;;;;;;5041742;28;20059;-87
2023/07/09 00:54:55;;;;;;;10.02;7.63;;;23.90;95.90;;;;;;5037846;28;20049;-86
2023/07/09 00:57:24;;;;;;;11.73;7.70;;;23.90;96.00;;;;;;5021559;28;20043;-88
2023/07/09 00:59:56;;;;;;;13.43;7.20;;;23.80;95.90;;;;;;5021572;28;20041;-88
2023/07/09 01:02:34;;;;;;;12.25;7.15;;;23.80;95.90;;;;;;5054821;28;20412;-88
2023/07/09 01:05:04;;;;;;;11.07;7.38;;;23.80;95.90;;;;;;5037658;28;20036;-88
2023/07/09 01:07:30;;;;;;;13.45;7.45;;;23.70;95.90;;;;;;5054124;28;20061;-88
2023/07/09 01:10:02;;;;;;;9.73;7.60;;;23.60;96.30;;;;;;5038639;28;20031;-88
2023/07/09 01:12:40;;;;;;;;;;;;;;;;;;;;;
2023/07/09 01:15:11;;;;;;;13.30;7.80;;;23.50;96.00;;;;;;5054343;28;20033;-87
2023/07/09 01:17:37;;;;;;;11.95;7.68;;;23.50;96.00;;;;;;5037824;28;20115;-87
2023/07/09 01:20:09;;;;;;;10.20;7.05;;;23.50;96.00;;;;;;5008612;28;20159;-87
2023/07/09 01:22:36;;;;;;;14.20;7.45;;;23.50;96.00;;;;;;5041503;28;20041;-87
2023/07/09 01:25:07;;;;;;;15.57;7.78;;;23.50;96.10;;;;;;5041620;28;20083;-87
2023/07/09 01:27:39;;;;;;;11.27;7.35;;;23.40;96.10;;;;;;5041146;28;20028;-88
2023/07/09 01:30:14;;;;;;;15.43;8.40;;;23.40;96.20;;;;;;5025790;28;20031;-87
2023/07/09 01:32:45;;;;;;;12.13;7.80;;;23.30;96.20;;;;;;5024986;28;20033;-87
2023/07/09 01:35:14;;;;;;;13.48;7.65;;;23.30;96.20;;;;;;5041085;28;20369;-88
2023/07/09 01:37:44;;;;;;;11.13;7.53;;;23.30;96.30;;;;;;5040934;28;20365;-88
2023/07/09 01:40:13;;;;;;;10.77;7.50;;;23.30;96.30;;;;;;5043607;28;20032;-88
2023/07/09 01:42:42;;;;;;;11.48;7.50;;;23.20;96.40;;;;;;5045023;28;20041;-87
2023/07/09 01:45:16;;;;;;;11.75;7.63;;;23.20;96.30;;;;;;5060609;28;20051;-88
2023/07/09 01:47:43;;;;;;;11.23;7.60;;;23.20;96.40;;;;;;5044839;28;20040;-87
2023/07/09 01:50:17;;;;;;;11.98;7.35;;;23.20;96.40;;;;;;5027997;28;20024;-87
2023/07/09 01:52:45;;;;;;;11.25;7.93;;;23.20;96.40;;;;;;5060821;28;20082;-87
2023/07/09 01:55:17;;;;;;;14.32;8.00;;;23.20;96.50;;;;;;5060423;28;20049;-87
2023/07/09 01:57:45;;;;;;;12.18;8.13;;;23.20;96.50;;;;;;5044429;28;20028;-87
2023/07/09 02:00:18;;;;;;;11.10;8.07;;;23.20;96.40;;;;;;5044182;28;20483;-88
2023/07/09 02:02:47;;;;;;;;;;;23.20;96.40;;;;;;5044836;28;20028;-87
2023/07/09 02:05:16;;;;;;;16.70;8.52;;;23.00;96.40;;;;;;5060577;28;19919;-87
2023/07/09 02:07:48;;;;;;;10.68;7.50;;;23.00;96.50;;;;;;5045021;28;20119;-87
2023/07/09 02:10:18;;;;;;;17.33;8.52;;;23.00;96.50;;;;;;5044156;28;20035;-88
2023/07/09 02:12:49;;;;;;;12.30;7.85;;;23.00;96.60;;;;;;5077469;28;20039;-87
2023/07/09 02:15:18;;;;;;;12.80;8.10;;;23.00;96.60;;;;;;5060742;28;20293;-88
2023/07/09 02:17:46;;;;;;;10.68;7.90;;;23.00;96.50;;;;;;5043579;28;20032;-87
2023/07/09 02:20:15;;;;;;;11.02;8.15;;;23.00;96.60;;;;;;5044367;28;20304;-88
2023/07/09 02:22:45;;;;;;;11.68;8.63;;;23.00;96.50;;;;;;5043845;28;20086;-87
2023/07/09 02:25:11;;;;;;;9.80;7.88;;;22.90;96.50;;;;;;5043403;28;20514;-87
2023/07/09 02:27:38;;;;;;;14.13;7.90;;;22.90;96.50;;;;;;5043530;28;20033;-88
2023/07/09 02:30:07;;;;;;;11.88;7.80;;;22.90;96.60;;;;;;5059889;28;20336;-88
2023/07/09 02:32:44;;;;;;;10.80;8.43;;;22.90;96.60;;;;;;5044049;28;20094;-87
2023/07/09 02:35:10;;;;;;;12.77;8.35;;;22.80;96.60;;;;;;5060718;28;20033;-87
2023/07/09 02:37:42;;;;;;;12.02;8.10;;;22.80;96.70;;;;;;5043258;28;20033;-87
2023/07/09 02:40:14;;;;;;;14.13;8.20;;;22.80;96.60;;;;;;5044085;28;20041;-88
2023/07/09 02:42:40;;;;;;;13.35;8.55;;;22.80;96.70;;;;;;5060075;28;20029;-88
2023/07/09 02:45:10;;;;;;;14.77;8.63;;;22.70;96.70;;;;;;5043012;28;20028;-88
2023/07/09 02:47:43;;;;;;;14.15;7.95;;;22.70;96.70;;;;;;5044192;28;20036;-87
2023/07/09 02:50:35;;;;;;;10.70;8.52;;;22.70;96.80;;;;;;5039612;28;20036;-88
2023/07/09 02:53:11;;;;;;;11.50;7.95;;;22.60;96.80;;;;;;5029320;28;20059;-89
2023/07/09 02:55:40;;;;;;;11.77;8.35;;;22.60;96.90;;;;;;5025935;28;20049;-88
2023/07/09 02:58:08;;;;;;;11.57;8.65;;;22.50;97.00;;;;;;5026721;28;20387;-87
2023/07/09 03:00:37;;;;;;;12.55;8.32;;;22.50;97.00;;;;;;5026240;28;20070;-88
2023/07/09 03:03:05;;;;;;;11.35;8.43;;;22.50;97.00;;;;;;5059180;28;20024;-87
2023/07/09 03:05:37;;;;;;;12.45;8.85;;;22.50;97.30;;;;;;5042513;28;20047;-88
2023/07/09 03:08:03;;;;;;;12.57;9.70;;;22.50;97.10;;;;;;5026336;28;20039;-87
2023/07/09 03:10:36;;;;;;;14.73;8.95;;;22.50;97.00;;;;;;5042764;28;20044;-88
2023/07/09 03:13:12;;;;;;;11.52;8.95;;;22.50;97.00;;;;;;5025064;28;20029;-87
2023/07/09 03:15:41;;;;;;;15.40;8.73;;;22.50;97.10;;;;;;5028962;28;20029;-87
2023/07/09 03:18:09;;;;;;;13.60;8.43;;;22.50;97.10;;;;;;5022571;28;20127;-88
2023/07/09 03:20:38;;;;;;;11.90;8.73;;;22.40;97.10;;;;;;5022550;28;20032;-88
2023/07/09 03:23:09;;;;;;;12.10;8.35;;;22.40;97.20;;;;;;5039909;28;20451;-87
2023/07/09 03:25:43;;;;;;;12.10;8.57;;;22.40;97.20;;;;;;5022090;28;20491;-88
2023/07/09 03:28:11;;;;;;;13.18;8.82;;;22.40;97.30;;;;;;5022698;28;20123;-88
2023/07/09 03:30:45;;;;;;;14.10;8.65;;;22.30;97.30;;;;;;5055333;28;20029;-88
2023/07/09 03:33:18;;;;;;;10.90;8.50;;;22.30;97.30;;;;;;5023207;28;20036;-89
2023/07/09 03:35:44;;;;;;;14.80;8.80;;;22.30;97.50;;;;;;5039060;28;20033;-88
2023/07/09 03:38:11;;;;;;;11.55;7.78;;;22.30;97.50;;;;;;5006200;28;20028;-87
2023/07/09 03:40:40;;;;;;;11.20;8.75;;;22.20;97.50;;;;;;5041998;28;20417;-88
2023/07/09 03:43:11;;;;;;;12.32;8.77;;;22.20;97.50;;;;;;5038811;28;20036;-88
2023/07/09 03:45:44;;;;;;;11.35;7.97;;;22.30;97.60;;;;;;5030746;28;20036;-88
2023/07/09 03:48:15;;;;;;;15.57;8.77;;;22.30;97.60;;;;;;5006562;28;20056;-87
2023/07/09 03:50:46;;;;;;;12.18;9.07;;;22.20;97.60;;;;;;5056070;28;20127;-88
2023/07/09 03:53:13;;;;;;;17.13;9.40;;;22.20;97.60;;;;;;5022126;28;20071;-88
2023/07/09 03:55:58;;;;;;;15.88;10.88;;;22.20;97.70;;;;;;5022407;28;20107;-88
2023/07/09 03:58:28;;;;;;;14.50;11.10;;;22.20;97.70;;;;;;5054852;28;20432;-87
2023/07/09 04:00:59;;;;;;;14.73;11.30;;;22.20;97.70;;;;;;5038317;28;20048;-88
2023/07/09 04:03:27;;;;;;;17.95;11.60;;;22.10;97.80;;;;;;5022162;28;20047;-87
2023/07/09 04:05:54;;;;;;;14.07;11.10;;;22.20;97.90;;;;;;5055712;28;20432;-87
2023/07/09 04:08:26;;;;;;;14.90;11.48;;;22.20;97.90;;;;;;5038092;28;20029;-88
2023/07/09 04:10:59;;;;;;;18.08;11.27;;;22.20;97.90;;;;;;5021586;28;20477;-88
2023/07/09 04:13:27;;;;;;;14.65;10.60;;;22.20;97.90;;;;;;5021417;28;20323;-87
2023/07/09 04:15:55;;;;;;;14.77;9.38;;;22.20;97.90;;;;;;5021598;28;20135;-88
2023/07/09 04:18:23;;;;;;;16.05;10.43;;;22.10;97.90;;;;;;5038066;28;20021;-88
2023/07/09 04:20:53;;;;;;;14.40;10.63;;;22.20;98.00;;;;;;5038443;28;20035;-87
2023/07/09 04:23:25;;;;;;;16.90;10.55;;;22.20;98.10;;;;;;5005889;28;20029;-88
2023/07/09 04:25:51;;;;;;;13.93;9.13;;;22.20;98.10;;;;;;5006096;28;20162;-87
2023/07/09 04:28:19;;;;;;;13.45;9.90;;;22.20;98.10;;;;;;5005605;28;20028;-87
2023/07/09 04:30:50;;;;;;;13.52;8.93;;;22.20;98.20;;;;;;5006196;28;20036;-88
2023/07/09 04:33:24;;;;;;;12.48;8.70;;;22.20;98.30;;;;;;5024692;28;20052;-88
2023/07/09 04:35:50;;;;;;;11.50;8.93;;;22.20;98.30;;;;;;5004984;28;20114;-88
2023/07/09 04:38:23;;;;;;;13.95;9.95;;;22.20;98.40;;;;;;5007387;28;20124;-87
2023/07/09 04:40:55;;;;;;;14.90;10.13;;;22.10;98.40;;;;;;5005894;28;20124;-87
2023/07/09 04:43:26;;;;;;;15.60;10.52;;;22.20;98.40;;;;;;5022189;28;20060;-87
2023/07/09 04:45:52;;;;;;;23.98;11.10;;;22.20;98.40;;;;;;5021244;28;20063;-87
2023/07/09 04:48:20;;;;;;;14.55;10.68;;;22.20;98.50;;;;;;5021441;28;20033;-88
2023/07/09 04:50:59;;;;;;;13.38;9.75;;;22.20;98.50;;;;;;5007305;28;20355;-87
2023/07/09 04:53:28;;;;;;;12.65;9.70;;;22.20;98.50;;;;;;5007059;28;20040;-88
2023/07/09 04:56:03;;;;;;;12.38;9.77;;;22.20;98.50;;;;;;5027856;28;20074;-87
2023/07/09 04:58:30;;;;;;;12.68;9.77;;;22.20;98.60;;;;;;5009000;28;20029;-88
2023/07/09 05:01:03;;;;;;;12.57;9.50;;;22.30;98.60;;;;;;5009014;28;20028;-87
2023/07/09 05:03:32;;;;;;;13.40;9.40;;;22.30;98.70;;;;;;4994122;28;20041;-88
2023/07/09 05:05:58;;;;;;;12.63;9.40;;;22.20;98.70;;;;;;5008903;28;20028;-87
2023/07/09 05:08:31;;;;;;;13.98;9.63;;;22.30;98.80;;;;;;5025890;28;20033;-87
2023/07/09 05:10:59;;;;;;;11.38;9.20;;;22.30;98.90;;;;;;5009429;28;20032;-88
2023/07/09 05:13:28;;;;;;;13.73;8.75;;;22.30;98.90;;;;;;5044961;28;20032;-87
2023/07/09 05:15:56;;;;;;;15.32;9.77;;;22.30;98.90;;;;;;5028395;28;20139;-87
2023/07/09 05:18:23;;;;;;;12.48;10.02;;;22.30;99.00;;;;;;5044726;28;20029;-87
2023/07/09 05:20:50;;;;;;;13.38;9.43;;;22.40;99.00;;;;;;5011799;28;20064;-87
2023/07/09 05:23:18;;;;;;;14.15;9.82;;;22.40;99.10;;;;;;5028931;28;20036;-87
2023/07/09 05:25:47;;;;;;;14.20;10.23;;;22.30;99.10;;;;;;5044268;28;20029;-88
2023/07/09 05:28:21;;;;;;;14.30;10.23;;;22.40;99.20;;;;;;5030134;28;20108;-87
2023/07/09 05:30:49;;;;;;;13.75;9.57;;;22.40;99.30;;;;;;5028146;28;20185;-87
2023/07/09 05:33:18;;;;;;;13.18;10.68;;;22.40;99.30;;;;;;5044822;28;20020;-88
2023/07/09 05:35:49;;;;;;;13.63;10.25;;;22.40;99.40;;;;;;5044720;28;20497;-87
2023/07/09 05:38:25;;;;;;;14.50;10.07;;;22.40;99.50;;;;;;5044918;28;20419;-87
2023/07/09 05:41:08;;;;;;;14.20;9.88;;;22.40;99.60;;;;;;5029163;28;20044;-87
2023/07/09 05:43:39;;;;;;;14.05;10.00;;;22.40;99.60;;;;;;5045389;28;20039;-87
2023/07/09 05:46:08;;;;;;;14.55;10.23;;;22.40;99.70;;;;;;5044461;28;20025;-88
2023/07/09 05:48:42;;;;;;;14.13;9.80;;;22.40;99.80;;;;;;5044822;28;20098;-87
2023/07/09 05:51:10;;;;;;;15.15;10.23;;;22.40;99.90;;;;;;5044901;28;20036;-88
2023/07/09 05:53:39;;;;;;;13.82;10.27;;;22.50;99.90;;;;;;5045583;28;20047;-87
2023/07/09 05:56:10;;;;;;;13.50;9.85;;;22.50;99.90;;;;;;5048997;28;20036;-87
2023/07/09 05:58:45;;;;;;;12.90;9.77;;;22.60;99.90;;;;;;5063987;28;20039;-87
2023/07/09 06:01:11;;;;;;;14.35;10.30;;;22.60;99.90;;;;;;5064010;28;20028;-86
2023/07/09 06:03:42;;;;;;;12.98;9.90;;;22.70;99.90;;;;;;5047582;28;20493;-87
2023/07/09 06:06:11;;;;;;;14.52;10.20;;;22.80;99.90;;;;;;5040648;28;20031;-88
2023/07/09 06:08:43;;;;;;;16.25;10.60;;;22.80;99.90;;;;;;5048063;28;20039;-87
2023/07/09 06:11:11;;;;;;;13.43;9.70;;;22.90;99.90;;;;;;5044363;28;20038;-86
2023/07/09 06:13:38;;;;;;;13.48;10.45;;;23.00;99.90;;;;;;5044467;28;20086;-86
2023/07/09 06:16:06;;;;;;;15.50;10.30;;;23.00;99.90;;;;;;5050571;28;20071;-86
2023/07/09 06:18:38;;;;;;;16.17;10.15;;;23.10;99.90;;;;;;5080166;28;20099;-87
2023/07/09 06:21:10;;;;;;;13.68;10.10;;;23.10;99.90;;;;;;5063209;28;20024;-87
2023/07/09 06:23:36;;;;;;;13.73;10.68;;;23.20;99.90;;;;;;5063788;28;20074;-87
2023/07/09 06:26:05;;;;;;;12.50;10.20;;;23.20;99.90;;;;;;5064162;28;20038;-87
2023/07/09 06:28:34;;;;;;;16.08;10.38;;;23.20;99.90;;;;;;5043846;28;20033;-87
2023/07/09 06:31:00;;;;;;;13.75;10.10;;;23.30;99.90;;;;;;5053995;28;20028;-87
2023/07/09 06:33:35;;;;;;;17.02;10.60;;;23.30;99.90;;;;;;5075067;28;20017;-88
2023/07/09 06:36:04;;;;;;;16.25;11.30;;;23.40;99.90;;;;;;5074213;28;20423;-87
2023/07/09 06:38:33;;;;;;;17.95;10.95;;;23.50;99.90;;;;;;5080047;28;20036;-87
2023/07/09 06:41:02;;;;;;;15.45;11.15;;;23.50;99.90;;;;;;5063522;28;20486;-88
2023/07/09 06:43:28;;;;;;;14.13;11.23;;;23.60;99.90;;;;;;5033249;28;20423;-88
2023/07/09 06:45:57;;;;;;;13.82;11.45;;;23.70;99.90;;;;;;5026882;28;20439;-88
2023/07/09 06:48:28;;;;;;;16.45;11.52;;;23.80;99.90;;;;;;5050268;28;20059;-88
2023/07/09 06:50:59;;;;;;;19.83;11.35;;;23.90;99.90;;;;;;5044084;28;20332;-88
2023/07/09 06:53:26;;;;;;;14.43;10.65;;;24.00;99.90;;;;;;5042668;28;20309;-87
2023/07/09 06:55:55;;;;;;;14.90;11.35;;;24.10;99.90;;;;;;5010477;28;20040;-88
2023/07/09 06:58:25;;;;;;;16.13;11.73;;;24.20;99.90;;;;;;5027255;28;20039;-88
2023/07/09 07:00:51;;;;;;;17.08;12.60;;;24.20;99.90;;;;;;5059260;28;20091;-88
2023/07/09 07:03:18;;;;;;;18.63;12.77;;;24.30;99.90;;;;;;5028599;28;20044;-88
2023/07/09 07:05:54;;;;;;;15.15;12.25;;;24.30;99.90;;;;;;5054621;28;20020;-87
2023/07/09 07:08:24;;;;;;;16.42;12.20;;;24.40;99.90;;;;;;5045332;28;20438;-89
2023/07/09 07:11:17;;;;;;;16.65;12.38;;;24.40;99.90;;;;;;5075463;28;20016;-87
2023/07/09 07:13:46;;;;;;;16.35;12.93;;;24.50;99.90;;;;;;5062593;28;20028;-87
2023/07/09 07:16:12;;;;;;;18.33;13.52;;;24.50;99.90;;;;;;5062053;28;20054;-87
2023/07/09 07:18:41;;;;;;;18.42;13.68;;;24.50;99.90;;;;;;5063261;28;20115;-87
2023/07/09 07:21:07;;;;;;;19.85;13.00;;;24.60;99.90;;;;;;5079231;28;20024;-86
2023/07/09 07:23:36;;;;;;;18.95;14.38;;;24.70;99.90;;;;;;5057013;28;20032;-86
2023/07/09 07:26:11;;;;;;;16.42;14.48;;;24.70;99.90;;;;;;5033266;28;20445;-87
2023/07/09 07:28:46;;;;;;;18.20;14.52;;;24.80;99.90;;;;;;5062530;28;20028;-87
2023/07/09 07:31:15;;;;;;;18.63;14.52;;;24.90;99.90;;;;;;5062308;28;20123;-87
2023/07/09 07:33:48;;;;;;;18.33;15.10;;;25.00;99.90;;;;;;5047141;28;20085;-87
2023/07/09 07:36:17;;;;;;;21.27;17.38;;;25.00;99.90;;;;;;5042009;28;20107;-88
2023/07/09 07:38:46;;;;;;;20.35;15.77;;;25.10;99.90;;;;;;5025819;28;20049;-88
2023/07/09 07:41:14;;;;;;;20.63;15.82;;;25.10;99.90;;;;;;5052905;28;20070;-88
2023/07/09 07:43:45;;;;;;;21.20;16.33;;;25.10;99.90;;;;;;5041778;28;20078;-91
2023/07/09 07:46:14;;;;;;;25.77;17.08;;;25.10;99.90;;;;;;5042480;28;20028;-91
2023/07/09 07:48:45;;;;;;;21.60;16.50;;;25.10;99.90;;;;;;5011874;28;20024;-89
2023/07/09 07:51:19;;;;;;;20.08;15.65;;;25.20;99.90;;;;;;5058263;28;20779;-88
2023/07/09 07:53:52;;;;;;;21.50;15.25;;;25.20;99.90;;;;;;5057625;28;20051;-88
2023/07/09 07:56:18;;;;;;;21.17;15.07;;;25.30;99.90;;;;;;5045039;28;20446;-87
2023/07/09 07:58:46;;;;;;;16.65;13.15;;;25.40;99.90;;;;;;5058199;28;20027;-88
2023/07/09 08:01:15;;;;;;;15.63;11.85;;;25.40;99.90;;;;;;5029693;28;20035;-88
2023/07/09 08:04:02;;;;;;;16.27;11.80;;;25.50;99.90;;;;;;5033736;28;20338;-88
2023/07/09 08:06:42;;;;;;;16.38;11.80;;;25.50;99.90;;;;;;5052632;28;20034;-89
2023/07/09 08:09:18;;;;;;;19.48;11.10;;;25.50;99.90;;;;;;5070460;28;20035;-88
2023/07/09 08:11:49;;;;;;;17.20;11.07;;;25.50;99.90;;;;;;5043743;28;20032;-89
2023/07/09 08:14:15;;;;;;;14.90;9.43;;;25.60;99.90;;;;;;5042105;28;20044;-88
2023/07/09 08:17:03;;;;;;;;;;;25.60;99.90;;;;;;5044423;28;20133;-88
2023/07/09 08:19:30;;;;;;;15.73;9.13;;;25.70;99.90;;;;;;5061549;28;19957;-87
2023/07/09 08:21:58;;;;;;;14.50;9.32;;;25.60;99.90;;;;;;5028241;28;20063;-89
2023/07/09 08:24:27;;;;;;;17.30;10.18;;;25.70;99.90;;;;;;5061715;28;20103;-88
2023/07/09 08:27:00;;;;;;;15.40;10.52;;;25.70;99.80;;;;;;5045414;28;20127;-88
2023/07/09 08:29:31;;;;;;;14.55;9.70;;;25.70;99.90;;;;;;5029863;28;20119;-89
2023/07/09 08:32:00;;;;;;;12.82;9.65;;;25.70;99.90;;;;;;5076849;28;20074;-88
2023/07/09 08:34:28;;;;;;;15.82;11.13;;;25.70;99.90;;;;;;5061495;28;20036;-88
2023/07/09 08:36:54;;;;;;;18.02;10.85;;;25.80;99.90;;;;;;5044778;28;20038;-88
2023/07/09 08:39:20;;;;;;;17.02;11.13;;;25.80;99.90;;;;;;5044876;28;20092;-89
2023/07/09 08:42:10;;;;;;;16.27;11.05;;;25.80;99.90;;;;;;5077009;28;20063;-88
2023/07/09 08:45:09;;;;;;;17.45;11.20;;;26.00;99.90;;;;;;5061979;28;20065;-88
2023/07/09 08:47:56;;;;;;;14.48;9.80;;;26.00;99.90;;;;;;5062408;28;20043;-89
2023/07/09 08:59:21;;;;;;;12.15;8.60;;;26.00;98.30;;;;;;4985983;28;20045;-92
2023/07/09 09:06:22;;;;;;;10.45;8.20;;;26.10;97.40;;;;;;5007069;28;20091;-90
2023/07/09 09:21:37;;;;;;;11.68;7.40;;;26.40;97.90;;;;;;5043467;28;20312;-91
2023/07/09 09:24:31;;;;;;;10.43;7.00;;;26.50;97.30;;;;;;5021941;28;20061;-90
2023/07/09 09:26:59;;;;;;;11.18;5.93;;;26.60;97.20;;;;;;5038270;28;20079;-90
2023/07/09 09:29:25;;;;;;;9.65;5.97;;;26.70;97.30;;;;;;5038111;28;20017;-90
2023/07/09 09:31:55;;;;;;;9.57;5.75;;;26.80;97.20;;;;;;5054558;28;20053;-90
2023/07/09 09:34:25;;;;;;;10.15;5.78;;;26.90;96.70;;;;;;5021821;28;20112;-90
2023/07/09 09:36:51;;;;;;;11.65;6.10;;;27.00;96.00;;;;;;5038083;28;20415;-91
2023/07/09 09:39:18;;;;;;;9.65;5.30;;;27.00;95.80;;;;;;5005479;28;20123;-91
2023/07/09 09:42:00;;;;;;;13.52;6.90;;;27.00;95.80;;;;;;5042344;28;20124;-90
2023/07/09 09:44:31;;;;;;;8.35;5.55;;;27.10;95.80;;;;;;5022165;28;20037;-90
2023/07/09 09:47:00;;;;;;;8.88;5.82;;;27.20;95.70;;;;;;5032443;28;20036;-90
2023/07/09 09:49:26;;;;;;;10.43;6.07;;;27.30;95.40;;;;;;5005546;28;20345;-90
2023/07/09 09:52:01;;;;;;;11.73;5.10;;;27.20;95.20;;;;;;5038016;28;20037;-90
2023/07/09 09:54:31;;;;;;;8.88;4.97;;;27.30;95.20;;;;;;5021608;28;20447;-91
2023/07/09 09:56:58;;;;;;;10.23;5.30;;;27.40;94.90;;;;;;5005601;28;20032;-91
2023/07/09 09:59:30;;;;;;;8.32;4.85;;;27.40;94.40;;;;;;5007169;28;20026;-90
2023/07/09 10:02:20;;;;;;;9.90;5.88;;;27.50;94.20;;;;;;5035180;28;20086;-90
2023/07/09 10:04:47;;;;;;;12.55;5.60;;;27.60;94.50;;;;;;5061056;28;20029;-91
2023/07/09 10:07:27;;;;;;;8.85;5.30;;;27.50;94.90;;;;;;5071141;28;20056;-90
2023/07/09 10:09:58;;;;;;;9.75;6.13;;;27.50;94.90;;;;;;5038045;28;20309;-91
2023/07/09 10:12:38;;;;;;;9.90;5.20;;;27.50;94.80;;;;;;5041480;28;20319;-91
2023/07/09 10:16:06;;;;;;;10.65;5.43;;;27.50;94.50;;;;;;4987386;28;20358;-91
2023/07/09 10:18:57;;;;;;;8.02;5.20;;;27.50;94.40;;;;;;4946093;28;20031;-91
2023/07/09 10:21:49;;;;;;;9.13;4.75;;;27.50;94.20;;;;;;5036353;28;20033;-91
2023/07/09 10:24:42;;;;;;;9.63;5.10;;;27.60;94.50;;;;;;5021021;28;20059;-90
2023/07/09 10:27:14;;;;;;;8.95;5.47;;;27.60;94.50;;;;;;5045603;28;20072;-91
2023/07/09 10:30:01;;;;;;;7.72;5.00;;;27.70;94.60;;;;;;5060573;28;20059;-91
2023/07/09 10:33:04;;;;;;;9.30;4.57;;;27.80;94.30;;;;;;5027492;28;20424;-90
2023/07/09 10:35:47;;;;;;;9.38;4.80;;;27.80;94.10;;;;;;5042818;28;20057;-90
2023/07/09 10:38:20;;;;;;;8.93;4.47;;;27.80;93.80;;;;;;5060522;28;20451;-91
2023/07/09 10:40:52;;;;;;;8.25;4.57;;;27.80;94.10;;;;;;5085732;28;20190;-90
2023/07/09 10:43:37;;;;;;;7.90;4.97;;;27.90;94.10;;;;;;5060690;28;20050;-90
2023/07/09 10:50:39;;;;;;;11.15;5.30;;;28.10;93.80;;;;;;5066222;28;20040;-90
2023/07/09 10:53:14;;;;;;;8.70;4.53;;;28.10;93.80;;;;;;5060504;28;20028;-92
2023/07/09 10:56:04;;;;;;;8.65;4.90;;;28.20;93.90;;;;;;5047017;28;20071;-88
2023/07/09 10:58:38;;;;;;;10.05;4.90;;;28.30;93.60;;;;;;5060698;28;20416;-89
2023/07/09 11:01:05;;;;;;;9.27;4.45;;;28.20;93.30;;;;;;5064090;28;20048;-89
2023/07/09 11:03:38;;;;;;;9.88;4.38;;;28.40;93.70;;;;;;5043241;28;20078;-89
2023/07/09 11:07:06;;;;;;;9.02;4.60;;;28.50;93.30;;;;;;5049146;28;20055;-89
2023/07/09 11:09:35;;;;;;;10.77;4.60;;;28.60;93.20;;;;;;5030956;28;20031;-91
2023/07/09 11:12:19;;;;;;;10.77;4.93;;;28.70;93.30;;;;;;5046778;28;20390;-89
2023/07/09 11:14:59;;;;;;;9.05;4.93;;;28.70;93.40;;;;;;5055112;28;20328;-89
2023/07/09 11:17:29;;;;;;;8.82;5.05;;;28.70;93.50;;;;;;5060772;28;20027;-90
2023/07/09 11:20:00;;;;;;;10.18;4.03;;;28.90;93.90;;;;;;5063112;28;20024;-91
2023/07/09 11:22:40;;;;;;;7.95;4.30;;;28.90;93.60;;;;;;5046684;28;20036;-90
2023/07/09 11:25:44;;;;;;;9.02;4.32;;;28.90;93.80;;;;;;5047204;28;20430;-91
2023/07/09 11:28:11;;;;;;;9.30;4.15;;;29.00;94.00;;;;;;5034339;28;20085;-91
2023/07/09 11:30:53;;;;;;;7.30;3.63;;;29.10;93.60;;;;;;5046796;28;20122;-90
2023/07/09 11:33:30;;;;;;;9.52;4.30;;;29.20;93.00;;;;;;5047144;28;20032;-91
2023/07/09 11:36:27;;;;;;;8.45;4.20;;;29.20;92.90;;;;;;5077267;28;20032;-90
2023/07/09 11:38:55;;;;;;;10.27;4.28;;;29.30;92.80;;;;;;5057493;28;20039;-90
2023/07/09 11:41:36;;;;;;;9.77;4.63;;;29.30;92.60;;;;;;5047003;28;20036;-90
2023/07/09 11:44:19;;;;;;;9.70;4.22;;;29.40;92.80;;;;;;5045550;28;20066;-90
2023/07/09 11:47:11;;;;;;;7.57;4.32;;;29.50;92.90;;;;;;5059659;28;20024;-90
2023/07/09 11:49:58;;;;;;;8.35;4.18;;;29.50;93.00;;;;;;5045331;28;20066;-93
2023/07/09 11:52:36;;;;;;;7.25;4.20;;;29.70;92.80;;;;;;5072198;28;20057;-90
2023/07/09 11:55:37;;;;;;;10.88;4.30;;;29.80;92.50;;;;;;5033268;28;20114;-90
2023/07/09 11:58:18;;;;;;;6.78;3.92;;;29.80;92.40;;;;;;5039344;28;20036;-90
2023/07/09 12:00:48;;;;;;;8.30;4.20;;;29.80;92.40;;;;;;5045047;28;20093;-89
2023/07/09 12:03:23;;;;;;;8.23;4.20;;;29.70;92.30;;;;;;5044834;28;20414;-91
2023/07/09 12:05:52;;;;;;;9.82;4.22;;;29.90;92.40;;;;;;5062579;28;20051;-89
2023/07/09 12:08:32;;;;;;;7.93;3.70;;;29.90;92.50;;;;;;5043331;28;20052;-89
2023/07/09 12:10:58;;;;;;;9.70;4.13;;;30.00;92.30;;;;;;5042812;28;20040;-90
2023/07/09 12:13:24;;;;;;;7.70;4.15;;;30.10;91.90;;;;;;5044346;28;20626;-90
2023/07/09 12:15:52;;;;;;;10.48;4.00;;;30.00;91.90;;;;;;5045822;28;20134;-90
2023/07/09 12:18:21;;;;;;;8.73;4.10;;;30.00;91.80;;;;;;5045865;28;20463;-90
2023/07/09 12:20:55;;;;;;;7.55;4.20;;;29.90;91.60;;;;;;5062018;28;20031;-90
2023/07/09 12:23:29;;;;;;;9.70;4.38;;;29.90;91.90;;;;;;5045170;28;20098;-90
2023/07/09 12:26:01;;;;;;;8.77;4.30;;;29.80;92.10;;;;;;5056968;28;20046;-90
2023/07/09 12:28:30;;;;;;;8.30;4.50;;;29.90;92.00;;;;;;5047225;28;20032;-90
2023/07/09 12:30:58;;;;;;;8.93;4.18;;;30.00;91.50;;;;;;5096132;28;20444;-89
2023/07/09 12:33:28;;;;;;;7.97;4.05;;;29.90;91.00;;;;;;5061671;28;20124;-90
2023/07/09 12:35:59;;;;;;;9.95;3.90;;;29.80;91.20;;;;;;5047902;28;20028;-90
2023/07/09 12:38:43;;;;;;;9.68;3.85;;;29.70;90.90;;;;;;5051120;28;20058;-90
2023/07/09 12:41:37;;;;;;;8.50;4.10;;;29.70;90.80;;;;;;5061840;28;20369;-90
2023/07/09 12:44:04;;;;;;;5.90;4.10;;;29.70;90.50;;;;;;5038906;28;20442;-90
2023/07/09 12:46:33;;;;;;;8.65;4.20;;;29.60;90.20;;;;;;5057580;28;20036;-89
2023/07/09 12:49:00;;;;;;;8.70;4.13;;;29.40;90.20;;;;;;5049891;28;20063;-89
2023/07/09 12:51:30;;;;;;;8.18;4.30;;;29.40;90.00;;;;;;5044932;28;20256;-90
2023/07/09 12:54:17;;;;;;;7.05;4.18;;;29.40;90.20;;;;;;5045682;28;20030;-90
2023/07/09 12:56:47;;;;;;;8.48;4.78;;;29.40;90.30;;;;;;5061807;28;20024;-90
2023/07/09 12:59:24;;;;;;;7.25;4.55;;;29.20;90.30;;;;;;5060588;28;20131;-90
2023/07/09 13:02:00;;;;;;;;;;;29.20;90.20;;;;;;5045291;28;20040;-90
2023/07/09 13:04:36;;;;;;;;;;;29.10;90.50;;;;;;5061771;28;19919;-90
2023/07/09 13:07:02;;;;;;;7.97;4.50;;;28.90;90.60;;;;;;5062059;28;19919;-89
2023/07/09 13:09:28;;;;;;;8.57;4.53;;;28.80;90.70;;;;;;5076878;28;20040;-90
2023/07/09 13:11:58;;;;;;;7.88;4.35;;;28.80;90.50;;;;;;5041745;28;20081;-89
2023/07/09 13:14:30;;;;;;;7.75;4.35;;;28.90;90.80;;;;;;5043854;28;20628;-90
2023/07/09 13:17:09;;;;;;;6.95;4.53;;;28.90;90.60;;;;;;5029849;28;20186;-90
2023/07/09 13:19:35;;;;;;;9.73;5.07;;;28.80;90.60;;;;;;5028747;28;20021;-90
2023/07/09 13:22:04;;;;;;;9.77;5.00;;;28.80;90.10;;;;;;5029165;28;20345;-90
2023/07/09 13:24:32;;;;;;;9.10;5.20;;;28.60;89.60;;;;;;5044748;28;20099;-90
2023/07/09 13:27:01;;;;;;;8.95;5.57;;;28.50;90.40;;;;;;5081088;28;20020;-89
2023/07/09 13:29:31;;;;;;;9.80;5.85;;;28.40;91.20;;;;;;5065589;28;20445;-90
2023/07/09 13:31:57;;;;;;;8.52;5.43;;;28.30;91.40;;;;;;5048213;28;20020;-89
2023/07/09 13:34:26;;;;;;;8.73;5.22;;;28.20;91.60;;;;;;5048196;28;20032;-90
2023/07/09 13:36:55;;;;;;;10.23;5.40;;;28.20;91.70;;;;;;5060988;28;20420;-89